novatech.co.uk alexa rank chart, novatech.co.uk alexa rank daily changes

novatech.co.uk alexa rank chart, novatech.co.uk alexa rank daily changes

novatech.co.uk
Actual rank:
70 819

RANK HISTORY

Date Rank Diff
2017/06/23 70 819 -595
2017/06/22 71 414 -1 011
2017/06/21 72 425 -1 436
2017/06/20 73 861 +1 407
2017/06/19 72 454 -296
2017/06/18 72 750 -908
2017/06/17 73 658 +1 158
2017/06/16 72 500 -1 197
2017/06/15 73 697 -431
2017/06/14 74 128 +43
2017/06/13 74 085 +50
2017/06/12 74 035 -703
2017/06/11 74 738 +549
2017/06/10 74 189 -20
2017/06/09 74 209 +337
2017/06/08 73 872 -1 274
2017/06/07 75 146 -1 559
2017/06/06 76 705 +1 142
2017/06/05 75 563 +870
2017/06/04 74 693 -375
2017/06/03 75 068 +562
2017/06/02 74 506 +1 183
2017/06/01 73 323 -512
2017/05/31 73 835 +688
2017/05/30 73 147 -808
2017/05/29 73 955 -8
2017/05/28 73 963 +142
2017/05/27 73 821 +77
2017/05/26 73 744 -385
2017/05/25 74 129 -576
2017/05/24 74 705 +992
2017/05/23 73 713 +562
2017/05/22 73 151 -12
2017/05/21 73 163 +1 384
2017/05/20 71 779 -603
2017/05/19 72 382 +402
2017/05/18 71 980 +125
2017/05/17 71 855 -789
2017/05/16 72 644 +1 760
2017/05/15 70 884 -303
2017/05/14 71 187 -278
2017/05/13 71 465 +451
2017/05/12 71 014 -584
2017/05/11 71 598 -1 583
2017/05/10 73 181 +1 383
2017/05/09 71 798 -207
2017/05/08 72 005 +834
2017/05/07 71 171 +690
2017/05/06 70 481 -933
2017/05/05 71 414 +42
2017/05/04 71 372 +1 361
2017/05/03 70 011 +1 238
2017/05/02 68 773 -169
2017/05/01 68 942 -138
2017/04/30 69 080 +218
2017/04/29 68 862 -296
2017/04/28 69 158 +301
2017/04/27 68 857 +2 269
2017/04/26 66 588 -124
2017/04/25 66 712 +1 390
2017/04/24 65 322

WIDGET FOR YOUR SITE

DOMAINS WITH THE NEAREST RANK

Domain Rank
izaodao.com 70 814
ellusionist.com 70 815
theodinproject.com 70 816
i8866.com 70 817
movieshdgratis.com.mx 70 818
novatech.co.uk 70 819
yelp.it 70 820
bpm-power.com 70 821
5milesapp.com 70 822
betdsi.eu 70 823
san-x.co.jp 70 824

DOMAINS WITH THE NEAREST RANK BY TLD .co.uk

Domain Rank
piratebays.co.uk 70 497
gak.co.uk 70 561
parcelmonkey.co.uk 70 620
charityjob.co.uk 70 769
fidelity.co.uk 70 788
novatech.co.uk 70 819
thebookingbutton.co.uk 70 893
babeshows.co.uk 71 076
visiondirect.co.uk 71 080
hsamuel.co.uk 71 299
livecareer.co.uk 71 382